createdAt,value
2019-01-30T00:02:16.171Z,7.93
2019-01-30T00:04:48.554Z,9.93
2019-01-30T00:07:20.454Z,8.50
2019-01-30T00:09:51.765Z,9.67
2019-01-30T00:12:23.513Z,11.47
2019-01-30T00:14:57.433Z,8.33
2019-01-30T00:17:28.862Z,9.50
2019-01-30T00:20:00.638Z,10.77
2019-01-30T00:22:33.299Z,9.17
2019-01-30T00:25:05.746Z,8.57
2019-01-30T00:27:37.245Z,9.23
2019-01-30T00:30:10.213Z,8.20
2019-01-30T00:32:43.100Z,9.77
2019-01-30T00:35:14.712Z,9.40
2019-01-30T00:37:46.584Z,10.50
2019-01-30T00:40:19.853Z,10.70
2019-01-30T00:42:51.769Z,11.07
2019-01-30T00:45:23.581Z,12.20
2019-01-30T00:47:55.635Z,10.77
2019-01-30T00:50:27.193Z,10.37
2019-01-30T00:52:58.900Z,11.07
2019-01-30T00:55:31.706Z,9.90
2019-01-30T00:58:48.761Z,12.90
2019-01-30T01:01:20.211Z,12.47
2019-01-30T01:03:51.702Z,12.37
2019-01-30T01:06:25.702Z,12.13
2019-01-30T01:08:58.748Z,11.53
2019-01-30T01:11:30.314Z,11.70
2019-01-30T01:14:02.075Z,9.53
2019-01-30T01:16:33.764Z,13.40
2019-01-30T01:19:05.723Z,11.70
2019-01-30T01:21:37.339Z,14.13
2019-01-30T01:24:08.685Z,14.00
2019-01-30T01:26:40.222Z,12.33
2019-01-30T01:29:11.968Z,12.70
2019-01-30T01:31:43.528Z,13.63
2019-01-30T01:34:14.820Z,14.70
2019-01-30T01:36:46.176Z,11.53
2019-01-30T01:39:17.545Z,12.60
2019-01-30T01:41:50.619Z,17.57
2019-01-30T01:44:23.708Z,14.50
2019-01-30T01:46:55.366Z,12.57
2019-01-30T01:49:26.801Z,12.33
2019-01-30T01:51:59.314Z,12.80
2019-01-30T01:54:30.639Z,14.17
2019-01-30T01:57:03.500Z,12.33
2019-01-30T01:59:35.300Z,15.30
2019-01-30T02:02:07.006Z,14.63
2019-01-30T02:04:38.470Z,19.70
2019-01-30T02:07:09.933Z,21.33
2019-01-30T02:09:41.579Z,25.77
2019-01-30T02:12:13.178Z,23.93
2019-01-30T02:14:44.477Z,21.90
2019-01-30T02:17:15.938Z,29.47
2019-01-30T02:19:47.863Z,19.10
2019-01-30T02:22:19.335Z,17.53
2019-01-30T02:24:52.014Z,16.53
2019-01-30T02:27:23.425Z,13.77
2019-01-30T02:29:54.830Z,15.93
2019-01-30T02:32:27.643Z,17.10
2019-01-30T02:34:59.314Z,11.90
2019-01-30T02:37:30.735Z,15.03
2019-01-30T02:40:02.392Z,13.87
2019-01-30T02:42:35.618Z,15.93
2019-01-30T02:45:07.857Z,15.60
2019-01-30T02:47:39.465Z,15.07
2019-01-30T02:50:13.063Z,14.23
2019-01-30T02:52:44.931Z,14.53
2019-01-30T02:55:17.986Z,14.07
2019-01-30T02:57:49.776Z,14.67
2019-01-30T03:00:29.425Z,14.13
2019-01-30T03:03:01.119Z,16.50
2019-01-30T03:05:33.330Z,14.60
2019-01-30T03:08:05.252Z,14.97
2019-01-30T03:10:36.957Z,12.27
2019-01-30T03:13:08.358Z,14.00
2019-01-30T03:15:39.806Z,16.33
2019-01-30T03:18:11.425Z,14.57
2019-01-30T03:20:42.958Z,15.10
2019-01-30T03:23:14.473Z,13.37
2019-01-30T03:25:46.330Z,13.50
2019-01-30T03:28:20.084Z,18.03
2019-01-30T03:30:51.865Z,14.93
2019-01-30T03:33:23.614Z,14.50
2019-01-30T03:35:55.488Z,14.63
2019-01-30T03:38:26.791Z,15.93
2019-01-30T03:40:58.302Z,14.03
2019-01-30T03:43:29.937Z,14.77
2019-01-30T03:46:03.557Z,13.70
2019-01-30T03:48:35.042Z,14.63
2019-01-30T03:51:07.579Z,15.50
2019-01-30T03:53:39.153Z,14.70
2019-01-30T03:56:11.782Z,15.97
2019-01-30T03:58:43.442Z,15.63
2019-01-30T04:01:15.206Z,13.57
2019-01-30T04:03:46.705Z,18.30
2019-01-30T04:06:18.956Z,12.43
2019-01-30T04:08:51.016Z,14.27
2019-01-30T04:11:22.544Z,13.70
2019-01-30T04:13:53.980Z,14.07
2019-01-30T04:16:25.479Z,18.97
2019-01-30T04:18:57.047Z,19.40
2019-01-30T04:21:30.407Z,15.93
2019-01-30T04:24:01.857Z,16.07
2019-01-30T04:26:33.405Z,18.20
2019-01-30T04:29:07.121Z,15.67
2019-01-30T04:31:38.723Z,14.10
2019-01-30T04:34:11.370Z,17.73
2019-01-30T04:36:42.883Z,15.70
2019-01-30T04:39:14.590Z,17.47
2019-01-30T04:41:46.149Z,15.37
2019-01-30T04:44:17.586Z,17.60
2019-01-30T04:46:49.088Z,18.43
2019-01-30T04:49:20.696Z,21.77
2019-01-30T04:51:52.345Z,21.77
2019-01-30T04:54:23.877Z,19.40
2019-01-30T04:56:55.316Z,25.33
2019-01-30T04:59:26.830Z,22.73
2019-01-30T05:01:58.509Z,21.53
2019-01-30T05:04:30.043Z,21.63
2019-01-30T05:07:01.410Z,21.60
2019-01-30T05:09:33.434Z,23.30
2019-01-30T05:12:05.316Z,24.30
2019-01-30T05:14:36.775Z,23.07
2019-01-30T05:17:08.259Z,22.83
2019-01-30T05:19:40.247Z,22.47
2019-01-30T05:22:11.638Z,21.93
2019-01-30T05:24:43.147Z,21.03
2019-01-30T05:27:15.056Z,23.77
2019-01-30T05:29:46.539Z,22.27
2019-01-30T05:32:18.408Z,20.17
2019-01-30T05:34:51.889Z,20.27
2019-01-30T05:37:23.970Z,21.17
2019-01-30T05:39:55.871Z,19.67
2019-01-30T05:42:27.325Z,16.73
2019-01-30T05:45:00.374Z,21.27
2019-01-30T05:47:32.172Z,22.13
2019-01-30T05:50:04.436Z,19.77
2019-01-30T05:52:35.964Z,20.97
2019-01-30T05:55:09.621Z,20.67
2019-01-30T05:57:42.004Z,20.17
2019-01-30T06:00:16.825Z,20.90
2019-01-30T06:02:48.837Z,22.87
2019-01-30T06:05:21.010Z,22.83
2019-01-30T06:07:52.621Z,23.03
2019-01-30T06:10:24.429Z,24.07
2019-01-30T06:12:59.558Z,24.87
2019-01-30T06:15:31.148Z,22.63
2019-01-30T06:18:05.960Z,23.40
2019-01-30T06:20:37.824Z,26.60
2019-01-30T06:23:10.612Z,29.20
2019-01-30T06:25:42.554Z,26.67
2019-01-30T06:28:14.332Z,28.00
2019-01-30T06:30:45.768Z,25.73
2019-01-30T06:33:18.012Z,29.30
2019-01-30T06:35:49.768Z,27.20
2019-01-30T06:38:22.383Z,28.30
2019-01-30T06:40:53.798Z,29.10
2019-01-30T06:43:26.110Z,27.37
2019-01-30T06:45:58.060Z,25.37
2019-01-30T06:48:30.620Z,29.70
2019-01-30T06:51:02.126Z,28.70
2019-01-30T06:53:33.847Z,26.30
2019-01-30T06:56:06.972Z,27.33
2019-01-30T06:58:38.517Z,25.87
2019-01-30T07:01:09.954Z,28.57
2019-01-30T07:03:41.434Z,24.90
2019-01-30T07:06:12.996Z,26.63
2019-01-30T07:08:45.015Z,25.07
2019-01-30T07:11:17.550Z,28.37
2019-01-30T07:13:50.674Z,28.90
2019-01-30T07:16:22.277Z,26.40
2019-01-30T07:18:54.749Z,28.67
2019-01-30T07:21:26.225Z,35.83
2019-01-30T07:23:58.033Z,35.87
2019-01-30T07:26:29.433Z,37.93
2019-01-30T07:29:00.907Z,34.67
2019-01-30T07:31:32.485Z,34.27
2019-01-30T07:34:04.527Z,39.13
2019-01-30T07:36:35.981Z,33.90
2019-01-30T07:39:10.661Z,35.70
2019-01-30T07:41:42.825Z,33.40
2019-01-30T07:44:14.890Z,40.07
2019-01-30T07:46:46.673Z,35.30
2019-01-30T07:49:18.529Z,39.07
2019-01-30T07:51:50.039Z,40.93
2019-01-30T07:54:23.653Z,42.47
2019-01-30T07:56:55.911Z,35.20
2019-01-30T07:59:27.697Z,37.70
2019-01-30T08:01:59.134Z,37.57
2019-01-30T08:04:30.879Z,39.27
2019-01-30T08:07:03.151Z,36.53
2019-01-30T08:09:35.304Z,39.83
2019-01-30T08:12:08.507Z,40.10
2019-01-30T08:14:40.390Z,37.50
2019-01-30T08:17:11.917Z,40.73
2019-01-30T08:19:44.302Z,36.57
2019-01-30T08:22:16.300Z,37.27
2019-01-30T08:24:48.154Z,38.30
2019-01-30T08:27:21.467Z,32.20
2019-01-30T08:29:52.891Z,34.83
2019-01-30T08:32:24.727Z,35.43
2019-01-30T08:34:56.271Z,34.93
2019-01-30T08:37:28.175Z,34.37
2019-01-30T08:40:00.187Z,34.93
2019-01-30T08:42:31.895Z,34.43
2019-01-30T08:45:09.003Z,33.23
2019-01-30T08:47:41.703Z,35.80
2019-01-30T08:50:14.059Z,34.67
2019-01-30T08:52:46.092Z,35.57
2019-01-30T08:55:17.790Z,37.73
2019-01-30T08:57:49.762Z,36.60
2019-01-30T09:00:24.085Z,32.37
2019-01-30T09:02:55.902Z,31.50
2019-01-30T09:05:28.802Z,31.77
2019-01-30T09:08:00.524Z,29.57
2019-01-30T09:10:32.607Z,31.80
2019-01-30T09:13:04.540Z,31.70
2019-01-30T09:15:36.526Z,26.73
2019-01-30T09:18:08.887Z,27.60
2019-01-30T09:20:40.772Z,26.53
2019-01-30T09:23:12.501Z,24.80
2019-01-30T09:25:44.058Z,23.87
2019-01-30T09:28:15.566Z,23.77
2019-01-30T09:30:47.200Z,26.37
2019-01-30T09:33:25.604Z,20.30
2019-01-30T09:35:52.149Z,18.83
2019-01-30T09:38:27.178Z,20.50
2019-01-30T09:40:58.771Z,23.20
2019-01-30T09:43:30.407Z,22.70
2019-01-30T09:46:02.426Z,24.30
2019-01-30T09:48:34.115Z,23.73
2019-01-30T09:51:05.922Z,22.17
2019-01-30T09:53:37.743Z,24.47
2019-01-30T09:56:10.293Z,22.83
2019-01-30T10:54:46.388Z,16.33
2019-01-30T10:57:18.131Z,14.23
2019-01-30T10:59:51.631Z,12.60
2019-01-30T11:02:23.701Z,10.83
2019-01-30T11:04:55.508Z,9.90
2019-01-30T11:07:29.768Z,7.60
2019-01-30T11:10:01.398Z,7.40
2019-01-30T11:12:33.290Z,5.93
2019-01-30T11:15:07.452Z,5.43
2019-01-30T11:17:40.212Z,4.27
2019-01-30T11:20:15.076Z,3.57
2019-01-30T11:22:46.979Z,3.83
2019-01-30T11:25:21.623Z,3.13
2019-01-30T11:27:53.452Z,2.23
2019-01-30T11:30:25.194Z,1.60
2019-01-30T11:32:57.053Z,2.50
2019-01-30T11:35:29.156Z,3.10
2019-01-30T11:38:00.775Z,1.90
2019-01-30T11:40:32.912Z,2.20
2019-01-30T11:43:05.221Z,2.27
2019-01-30T11:45:39.437Z,2.37
2019-01-30T11:48:11.092Z,2.00
2019-01-30T11:50:43.910Z,1.97
2019-01-30T11:53:15.621Z,2.53
2019-01-30T11:55:47.796Z,3.00
2019-01-30T11:58:19.644Z,2.53
2019-01-30T12:00:55.615Z,10.60
2019-01-30T12:03:28.040Z,2.60
2019-01-30T12:06:00.935Z,3.37
2019-01-30T12:08:32.927Z,5.93
2019-01-30T12:11:04.637Z,3.30
2019-01-30T12:13:36.574Z,4.83
2019-01-30T12:16:09.280Z,2.70
2019-01-30T12:18:41.261Z,2.80
2019-01-30T12:21:12.901Z,2.87
2019-01-30T12:23:45.683Z,2.63
2019-01-30T12:26:17.736Z,7.20
2019-01-30T12:28:49.404Z,12.87
2019-01-30T12:31:21.952Z,4.73
2019-01-30T12:33:53.904Z,10.53
2019-01-30T12:36:26.643Z,5.83
2019-01-30T12:38:58.530Z,6.57
2019-01-30T12:41:30.557Z,8.03
2019-01-30T12:44:01.957Z,4.50
2019-01-30T12:46:34.722Z,3.10
2019-01-30T12:49:06.627Z,7.50
2019-01-30T12:51:38.187Z,5.50
2019-01-30T12:54:11.589Z,3.10
2019-01-30T12:56:44.791Z,4.63
2019-01-30T12:59:18.016Z,5.30
2019-01-30T13:01:49.888Z,5.60
2019-01-30T13:04:21.529Z,4.07
2019-01-30T13:06:54.477Z,5.03
2019-01-30T13:09:28.487Z,9.10
2019-01-30T13:11:59.407Z,5.57
2019-01-30T13:14:30.988Z,5.73
2019-01-30T13:17:02.653Z,5.67
2019-01-30T13:19:34.435Z,4.90
2019-01-30T13:22:06.594Z,3.90
2019-01-30T13:24:38.527Z,3.63
2019-01-30T13:27:12.077Z,4.50
2019-01-30T13:29:44.109Z,3.93
2019-01-30T13:32:15.756Z,3.90
2019-01-30T13:34:48.894Z,4.10
2019-01-30T13:37:20.895Z,4.77
2019-01-30T13:39:53.100Z,5.90
2019-01-30T13:42:24.754Z,5.73
2019-01-30T13:44:56.702Z,5.60
2019-01-30T13:47:28.856Z,6.47
2019-01-30T13:50:02.869Z,5.57
2019-01-30T13:52:34.725Z,5.70
2019-01-30T13:55:07.398Z,5.47
2019-01-30T13:57:39.162Z,4.70
2019-01-30T14:00:20.127Z,4.87
2019-01-30T14:02:52.030Z,7.17
2019-01-30T14:05:23.797Z,4.23
2019-01-30T14:07:56.218Z,4.20
2019-01-30T14:10:27.912Z,6.80
2019-01-30T14:12:59.685Z,6.17
2019-01-30T14:15:32.228Z,5.27
2019-01-30T14:18:03.810Z,7.13
2019-01-30T14:20:38.267Z,6.90
2019-01-30T14:23:10.177Z,7.70
2019-01-30T14:25:41.920Z,8.37
2019-01-30T14:28:13.830Z,10.00
2019-01-30T14:30:45.276Z,6.80
2019-01-30T14:33:16.790Z,7.53
2019-01-30T14:35:49.097Z,6.17
2019-01-30T14:38:20.599Z,5.20
2019-01-30T14:40:52.387Z,4.70
2019-01-30T14:43:24.501Z,6.33
2019-01-30T14:45:57.583Z,10.20
2019-01-30T14:48:29.332Z,7.80
2019-01-30T14:51:00.906Z,6.23
2019-01-30T14:53:32.601Z,3.90
2019-01-30T14:56:04.994Z,5.07
2019-01-30T14:58:36.799Z,8.47
2019-01-30T15:01:08.642Z,4.57
2019-01-30T15:03:40.391Z,5.03
2019-01-30T15:06:13.643Z,6.23
2019-01-30T15:08:46.948Z,4.17
2019-01-30T15:11:18.446Z,5.47
2019-01-30T15:13:50.616Z,6.53
2019-01-30T15:16:22.229Z,4.77
2019-01-30T15:18:53.744Z,6.90
2019-01-30T15:21:25.445Z,4.33
2019-01-30T15:23:57.149Z,5.37
2019-01-30T15:26:28.822Z,3.50
2019-01-30T15:29:00.386Z,5.60
2019-01-30T15:31:32.154Z,4.80
2019-01-30T15:34:03.852Z,4.03
2019-01-30T15:36:35.803Z,4.13
2019-01-30T15:39:10.158Z,4.57
2019-01-30T15:41:42.360Z,6.50
2019-01-30T15:44:14.391Z,3.70
2019-01-30T15:46:46.475Z,5.73
2019-01-30T15:49:18.065Z,6.13
2019-01-30T15:51:49.667Z,3.70
2019-01-30T15:54:23.055Z,6.47
2019-01-30T15:56:54.867Z,8.30
2019-01-30T15:59:26.567Z,9.67
2019-01-30T16:01:58.938Z,6.60
2019-01-30T16:04:31.544Z,9.73
2019-01-30T16:07:03.551Z,9.83
2019-01-30T16:09:35.162Z,9.30
2019-01-30T16:12:06.990Z,7.07
2019-01-30T16:14:38.592Z,9.13
2019-01-30T16:17:10.728Z,32.10
2019-01-30T16:19:42.156Z,12.67
2019-01-30T16:22:13.701Z,9.07
2019-01-30T16:24:45.387Z,5.27
2019-01-30T16:27:17.428Z,3.50
2019-01-30T16:29:49.452Z,9.53
2019-01-30T16:32:22.415Z,10.47
2019-01-30T16:34:55.594Z,14.83
2019-01-30T16:37:29.428Z,9.80
2019-01-30T16:40:01.008Z,10.80
2019-01-30T16:42:35.422Z,9.00
2019-01-30T16:45:09.596Z,6.80
2019-01-30T16:47:41.096Z,4.97
2019-01-30T16:50:14.162Z,5.40
2019-01-30T16:52:46.061Z,5.70
2019-01-30T16:55:18.440Z,4.07
2019-01-30T16:57:50.007Z,6.40
2019-01-30T17:00:27.163Z,5.47
2019-01-30T17:03:00.267Z,7.33
2019-01-30T17:05:32.956Z,7.17
2019-01-30T17:08:04.706Z,10.07
2019-01-30T17:10:36.602Z,7.37
2019-01-30T17:13:12.785Z,7.63
2019-01-30T17:15:45.031Z,7.83
2019-01-30T17:18:16.963Z,12.37
2019-01-30T17:20:48.759Z,8.27
2019-01-30T17:23:22.129Z,10.30
2019-01-30T17:25:55.769Z,9.33
2019-01-30T17:28:27.400Z,8.93
2019-01-30T17:31:02.631Z,7.07
2019-01-30T17:33:35.682Z,5.47
2019-01-30T17:36:17.879Z,7.13
2019-01-30T17:38:41.302Z,6.73
2019-01-30T17:41:14.493Z,5.80
2019-01-30T17:43:45.994Z,7.63
2019-01-30T17:46:18.325Z,5.87
2019-01-30T17:48:49.703Z,8.00
2019-01-30T17:51:22.356Z,10.20
2019-01-30T17:53:55.581Z,8.43
2019-01-30T17:56:27.065Z,12.07
2019-01-30T17:58:58.624Z,10.23
2019-01-30T18:01:30.143Z,6.80
2019-01-30T18:04:03.021Z,7.20
2019-01-30T18:06:34.483Z,7.50
2019-01-30T18:09:09.594Z,8.30
2019-01-30T18:11:41.165Z,7.60
2019-01-30T18:14:13.015Z,7.63
2019-01-30T18:16:44.682Z,6.70
2019-01-30T18:19:16.312Z,6.27
2019-01-30T18:21:50.284Z,8.80
2019-01-30T18:24:23.423Z,8.00
2019-01-30T18:26:58.381Z,6.40
2019-01-30T18:29:30.167Z,6.03
2019-01-30T18:32:01.864Z,10.67
2019-01-30T18:34:35.366Z,6.27
2019-01-30T18:37:07.222Z,7.53
2019-01-30T18:39:38.915Z,7.03
2019-01-30T18:42:11.610Z,8.30
2019-01-30T18:44:46.621Z,9.77
2019-01-30T18:47:22.338Z,8.30
2019-01-30T18:50:01.562Z,8.17
2019-01-30T18:52:34.383Z,10.43
2019-01-30T18:55:07.300Z,8.50
2019-01-30T18:57:40.145Z,10.17
2019-01-30T19:00:16.704Z,8.17
2019-01-30T19:02:49.738Z,7.00
2019-01-30T19:05:21.604Z,10.40
2019-01-30T19:07:53.918Z,8.30
2019-01-30T19:10:25.560Z,6.93
2019-01-30T19:12:57.315Z,7.60
2019-01-30T19:15:29.018Z,8.10
2019-01-30T19:18:00.877Z,12.20
2019-01-30T19:20:35.074Z,11.33
2019-01-30T19:23:07.586Z,16.23
2019-01-30T19:25:39.330Z,18.73
2019-01-30T19:28:11.436Z,34.63
2019-01-30T19:30:45.177Z,29.13
2019-01-30T19:33:16.762Z,23.27
2019-01-30T19:35:52.193Z,26.83
2019-01-30T19:38:22.436Z,27.73
2019-01-30T19:40:55.945Z,14.03
2019-01-30T19:43:27.529Z,12.87
2019-01-30T19:45:59.773Z,15.23
2019-01-30T19:48:31.757Z,15.33
2019-01-30T19:51:03.349Z,14.03
2019-01-30T19:53:36.531Z,14.93
2019-01-30T19:56:08.091Z,14.23
2019-01-30T19:58:40.027Z,16.97
2019-01-30T20:01:11.445Z,19.93
2019-01-30T20:03:42.852Z,17.13
2019-01-30T20:06:16.405Z,17.13
2019-01-30T20:11:31.849Z,18.27
2019-01-30T20:14:03.396Z,17.57
2019-01-30T20:16:34.910Z,20.23
2019-01-30T20:19:06.667Z,17.07
2019-01-30T20:21:38.380Z,18.60
2019-01-30T20:24:10.067Z,13.30
2019-01-30T20:26:41.515Z,14.33
2019-01-30T20:29:13.454Z,15.57
2019-01-30T20:31:47.077Z,15.73
2019-01-30T20:34:18.813Z,16.87
2019-01-30T20:36:50.360Z,14.40
2019-01-30T20:39:22.960Z,15.43
2019-01-30T20:41:54.556Z,18.10
2019-01-30T20:44:28.583Z,15.50
2019-01-30T20:47:00.220Z,14.43
2019-01-30T20:49:31.737Z,14.63
2019-01-30T20:52:03.389Z,17.00
2019-01-30T20:54:35.231Z,14.53
2019-01-30T20:57:06.972Z,12.13
2019-01-30T20:59:38.614Z,13.50
2019-01-30T21:02:11.183Z,14.07
2019-01-30T21:04:42.657Z,13.50
2019-01-30T21:07:15.487Z,15.23
2019-01-30T21:09:47.751Z,18.07
2019-01-30T21:12:23.907Z,18.43
2019-01-30T21:14:56.131Z,13.80
2019-01-30T21:17:27.652Z,16.23
2019-01-30T21:20:00.309Z,14.73
2019-01-30T21:22:32.775Z,14.13
2019-01-30T21:25:08.467Z,15.77
2019-01-30T21:27:40.110Z,14.30
2019-01-30T21:30:13.787Z,16.57
2019-01-30T21:32:46.760Z,17.97
2019-01-30T21:35:21.954Z,16.53
2019-01-30T21:37:53.691Z,15.73
2019-01-30T21:40:25.054Z,13.60
2019-01-30T21:42:57.610Z,12.73
2019-01-30T21:45:29.399Z,17.73
2019-01-30T21:48:00.925Z,16.60
2019-01-30T21:50:33.586Z,18.00
2019-01-30T21:53:06.649Z,15.67
2019-01-30T21:55:38.955Z,13.80
2019-01-30T21:58:11.634Z,15.67
2019-01-30T22:00:43.658Z,15.83
2019-01-30T22:03:15.396Z,15.10
2019-01-30T22:05:47.032Z,16.47
2019-01-30T22:08:20.156Z,18.87
2019-01-30T22:10:52.319Z,17.60
2019-01-30T22:13:24.431Z,15.30
2019-01-30T22:15:56.150Z,14.90
2019-01-30T22:18:28.763Z,16.03
2019-01-30T22:21:00.635Z,13.23
2019-01-30T22:23:32.360Z,15.50
2019-01-30T22:26:05.598Z,18.50
2019-01-30T22:28:37.106Z,17.07
2019-01-30T22:31:10.290Z,18.90
2019-01-30T22:33:41.747Z,17.50
2019-01-30T22:36:13.474Z,15.50
2019-01-30T22:38:45.295Z,20.53
2019-01-30T22:41:17.225Z,25.30
2019-01-30T22:43:48.827Z,37.13
2019-01-30T22:46:20.631Z,21.27
2019-01-30T22:48:52.203Z,20.20
2019-01-30T22:51:23.814Z,19.47
2019-01-30T22:53:56.513Z,26.07
2019-01-30T22:56:28.259Z,27.50
2019-01-30T22:58:59.871Z,20.20
2019-01-30T23:01:45.593Z,17.90
2019-01-30T23:05:05.207Z,17.57
2019-01-30T23:08:04.846Z,22.47
2019-01-30T23:11:17.037Z,18.13
2019-01-30T23:14:11.767Z,19.33
2019-01-30T23:17:18.935Z,21.27
2019-01-30T23:20:09.211Z,19.43
2019-01-30T23:23:11.472Z,17.53
2019-01-30T23:26:06.408Z,21.50
2019-01-30T23:29:18.975Z,21.77
2019-01-30T23:32:17.619Z,23.93
2019-01-30T23:35:22.219Z,24.63
2019-01-30T23:38:21.270Z,24.97
2019-01-30T23:41:20.762Z,17.30
2019-01-30T23:44:16.266Z,23.57
2019-01-30T23:47:26.274Z,21.60
2019-01-30T23:50:37.770Z,17.60
2019-01-30T23:54:12.421Z,18.20
2019-01-30T23:57:26.796Z,18.17
